Birch River, West Virginia
Current Conditions -  °F | °C
As of 9:15 AM on Thursday 18 Dec 2014 (Local Time) from KW22 Reporting Station
Haze Haze  
Wind Chill: 18°   Ceiling: 1800
Heat Index: 25°   Visibility: 5mi
Dew Point: 19°   Wind: 6mph
Humidity: 80%   Direction: 260°W
Pressure: 30.19"   Gusts: NA
Location:  38.5°N, 80.75°W
Report Text: KW22 181415Z AUTO 26005KT 5SM HZ OVC018 M04/M07 A3019 RMK AO2
Loading
Personal Weather Stations






























Interactive Weather Map New forecast layout! Learn more

10-Day Weather Forecast

Advertisements
Track Severe Weather on mobile